Terminal Aerodrome Forecast
Issued by NWS

Home | Current Version | Previous Version | Text Only | Print | Product List | Glossary On
Versions: 1 2 3 4 5 6 7 8 9 10 11 12 13 14 15 16 17
000
FTPA31 PHFO 211120
TAFHNY
TAF
PHNY 211120Z 2112/2212 04012KT P6SM FEW017 SCT045
     FM211900 05023G35KT P6SM FEW020 SCT045
      AMD NOT SKED=

USA.gov is the U.S. government's official web portal to all federal, state and local government web resources and services.